Pagina principale
METAR-TAF:

METAR-TAF

Aeroporti :

Szolnok, Ungheria

latitudine: 47-07N, longitudine: 020-14E, altezza: 89 m

Osservazione

Il bollettino è stato emesso 28 minuti fa, alle 12:45 UTC
Vento 4 kt da sud/sud-ovest
Temperature -1°C
Umidità 100%
Pressione 1024 hPa
Visibilità: 3000 m
Nuvoloso ad un'altezza di 600 ft
Cielo coperto ad un'altezza di 1000 ft
foschia

METAR: LHSN 061245Z 20004KT 3000 BR BKN006 OVC010 M01/M01 Q1024 NOSIG RMK YLO

Ora: 14:13 (13:13 UTC)

Previsione

Il bollettino è stato emesso 1 ora e 58 minuti fa, alle 11:15 UTC
Previsione valida dal 06 alle 12 UTC al 06 alle 21 UTC
Vento 5 kt da sud/sud-est
Visibilità: 1500 m
Cielo coperto ad un'altezza di 300 ft
foschia
Temporaneamente
dal 06 alle 12 UTC al 06 alle 18 UTC
Vento 3 kt da direzioni variabili
Visibilità: 3000 m
Cielo coperto ad un'altezza di 500 ft
foschia

TAF: LHSN 061115Z 0612/0621 15005KT 1500 BR OVC003 TEMPO 0612/0618 VRB03KT 3000 BR OVC005

Osservazioni e previsioni meteorologiche di più di 4000 aeroporti (messaggi METAR e TAF).

Le stazioni disponibili sono rappresentate dai dischi gialli e rossi sulla carta.

Puntare il mouse per vedere il nome della stazione.

Clicca sopra per visualizzare le osservazioni e previsioni meteorologiche.

Per cambiare la mappa : fare clic sui pulsanti verdi con una croce nera per ingrandire, il pulsante verde con un trattino per diminuire, o sulla freccia verde per le mappe adiacenti.


METAR-TAF: